Comstock, MN (56525)

6:28 PM CST on February 10, 2016 (GMT -0600)
Davies | | Change Station
CLOSE
Current Station
Personal Weather Station
Location: Fargo, ND
Elevation: 899 ft
Nearby Weather Stations

Elev 899 ft 46.78 °N, 96.82 °W | Updated 13 minutes ago

Overcast
Overcast
10.9 °F
Feels Like 3 °F
N
4.7
Wind Variable Wind from NE

Today
High -- | Low -- °F
--% Chance of Precip.
Yesterday
High -- | Low -- °F
Precip. -- in
Pressure 30.25 in
Visibility 10.0 miles
Clouds Scattered Clouds 6500 ft
Overcast 9000 ft
Windchill 3 °F
Dew Point 3 °F
Humidity 69%
Rainfall 0.00 in
Snow Depth Not available.
7:39 AM 5:43 PM
Waxing Crescent, 8% visible
METAR KJKJ 110011Z AUTO 01010KT 10SM SCT065 OVC090 M12/M17 A3025 RMK AO2
Pressure 30.25 in
Visibility 10.0 miles
Clouds Scattered Clouds 6500 ft
Overcast 9000 ft
Windchill 3 °F
Dew Point 3 °F
Humidity 69%
Rainfall 0.00 in
Snow Depth Not available.
7:39 AM 5:43 PM
Waxing Crescent, 8% visible
METAR KJKJ 110011Z AUTO 01010KT 10SM SCT065 OVC090 M12/M17 A3025 RMK AO2

10-Day Weather Forecast

Almanac

Astronomy

Feb. 10, 2016 Rise Set
Actual Time
Civil Twilight
Nautical Twilight
Astronomical Twilight
Moon
Length of Visible Light
Length of Day
Tomorrow will be .
, % of the Moon is Illuminated

Today's Extremes

State Highs State Lows

Community

WunderPhotos

Upload Photos

1,891,944 photos uploaded!

WunderBlog® & News

Nearby

Air Quality

  Air Quality AQ Index Pollutant
Not available.

Snow Depth

Station Depth Elevation

Earthquake Activity

City Distance Mag. Time & Date
Minimum magnitude displayed is 2.5.

Coastal Water Temperatures

Place Temperature

Stations

Nearby Weather Stations

Station Location Temp. Windchill Dew Point Humidity Wind Precip. Elev Updated Type
                   

Watches & Warnings

There are currently no watches in effect.